Home > Products > Valid Products > MTR

000
SAUS44 KMAF 050154
MTR6R6
METAR K6R6 050153Z AUTO 02020G30KT 05/03 A3005 RMK AO1 PK WND
02033/0138 SLP166 P0005 T00500028





000
SAUS44 KMAF 050154
MTR6R6
METAR K6R6 050153Z AUTO 02020G30KT 05/03 A3005 RMK AO1 PK WND
02033/0138 SLP166 P0005 T00500028





000
SAUS44 KMAF 050054
MTR6R6
METAR K6R6 050053Z AUTO 02020G28KT 07/04 A2999 RMK AO1 PK WND
36029/0041 SLP146 P0001 T00670044





000
SAUS44 KMAF 050054
MTR6R6
METAR K6R6 050053Z AUTO 02020G28KT 07/04 A2999 RMK AO1 PK WND
36029/0041 SLP146 P0001 T00670044





000
SAUS44 KMAF 042354
MTR6R6
METAR K6R6 042353Z AUTO 03018G27KT 10/06 A2992 RMK AO1 PK WND
01031/2314 SLP118 T01000061 10239 20100 53036





000
SAUS44 KMAF 042254
MTR6R6
METAR K6R6 042253Z AUTO 02020G30KT 13/09 A2985 RMK AO1 PK WND
02032/2216 SLP091 T01280089





000
SAUS44 KMAF 042154
MTR6R6
METAR K6R6 042153Z AUTO 03022G27KT 18/12 A2981 RMK AO1 PK WND
02028/2138 SLP074 T01830122





000
SAUS44 KMAF 042054
MTR6R6
METAR K6R6 042053Z AUTO 36016G20KT 23/07 A2981 RMK AO1 SLP070
T02280072 56019





000
SAUS44 KMAF 041954
MTR6R6
METAR K6R6 041953Z AUTO 36011G19KT 22/07 A2983 RMK AO1 SLP078
T02220067





000
SAUS44 KMAF 041954
MTR6R6
METAR K6R6 041953Z AUTO 36011G19KT 22/07 A2983 RMK AO1 SLP078
T02220067





000
SAUS44 KMAF 041854
MTR6R6
METAR K6R6 041853Z AUTO 35014KT 22/07 A2984 RMK AO1 SLP082 T02170072





000
SAUS44 KMAF 041854
MTR6R6
METAR K6R6 041853Z AUTO 35014KT 22/07 A2984 RMK AO1 SLP082 T02170072





000
SAUS44 KMAF 041754
MTR6R6
METAR K6R6 041753Z AUTO 35016G21KT 19/07 A2987 RMK AO1 SLP093
T01940072 10194 20106 58000





000
SAUS44 KMAF 041754
MTR6R6
METAR K6R6 041753Z AUTO 35016G21KT 19/07 A2987 RMK AO1 SLP093
T01940072 10194 20106 58000





000
SAUS44 KMAF 041655
MTR6R6
METAR K6R6 041653Z AUTO VRB03KT 13/11 A2989 RMK AO1 SLP103 T01330111





000
SAUS44 KMAF 041655
MTR6R6
METAR K6R6 041653Z AUTO VRB03KT 13/11 A2989 RMK AO1 SLP103 T01330111





000
SAUS44 KMAF 041554
MTR6R6
METAR K6R6 041553Z AUTO 35003KT 12/11 A2989 RMK AO1 SLP105 T01170106





000
SAUS44 KMAF 041454
MTR6R6
METAR K6R6 041453Z AUTO 00000KT 11/11 A2987 RMK AO1 SLP099 T01110106
53021





000
SAUS44 KMAF 041454
MTR6R6
METAR K6R6 041453Z AUTO 00000KT 11/11 A2987 RMK AO1 SLP099 T01110106
53021





000
SAUS44 KMAF 041354
MTR6R6
METAR K6R6 041353Z AUTO 00000KT 11/10 A2985 RMK AO1 SLP090 T01060100





000
SAUS44 KMAF 041354
MTR6R6
METAR K6R6 041353Z AUTO 00000KT 11/10 A2985 RMK AO1 SLP090 T01060100





000
SAUS44 KMAF 041254
MTR6R6
METAR K6R6 041253Z AUTO 05003KT 11/11 A2982 RMK AO1 SLP080 T01110106
$





000
SAUS44 KMAF 041154
MTR6R6
METAR K6R6 041153Z AUTO 07005KT 11/11 A2980 RMK AO1 SLP074 7////
T01110106 10122 20111 56005 $





000
SAUS44 KMAF 041154
MTR6R6
METAR K6R6 041153Z AUTO 07005KT 11/11 A2980 RMK AO1 SLP074 7////
T01110106 10122 20111 56005 $





000
SAUS44 KMAF 041054
MTR6R6
METAR K6R6 041053Z AUTO 04005KT 11/11 A2981 RMK AO1 SLP075 T01110106
$





000
SAUS44 KMAF 040954
MTR6R6
METAR K6R6 040953Z AUTO 02004KT 12/10 A2981 RMK AO1 SLP076 T01170100
$





000
SAUS44 KMAF 040855
MTR6R6
METAR K6R6 040853Z AUTO 00000KT 12/11 A2982 RMK AO1 SLP079 T01170106
56003 $





000
SAUS44 KMAF 040754
MTR6R6
METAR K6R6 040753Z AUTO 00000KT 12/10 A2983 RMK AO1 SLP082 T01170100
$





000
SAUS44 KMAF 040655
MTR6R6
METAR K6R6 040653Z AUTO 11005KT 12/10 A2982 RMK AO1 SLP079 T01170100
$





000
SAUS44 KMAF 040655
MTR6R6
METAR K6R6 040653Z AUTO 11005KT 12/10 A2982 RMK AO1 SLP079 T01170100
$





000
SAUS44 KMAF 040554
MTR6R6
METAR K6R6 040553Z AUTO 09006KT 12/10 A2983 RMK AO1 SLP085 T01220100
10156 20122 401780072 58004 $





000
SAUS44 KMAF 040554
MTR6R6
METAR K6R6 040553Z AUTO 09006KT 12/10 A2983 RMK AO1 SLP085 T01220100
10156 20122 401780072 58004 $





000
SAUS44 KMAF 040455
MTR6R6
METAR K6R6 040453Z AUTO 11004KT 13/10 A2985 RMK AO1 SLP094 T01280100
$





000
SAUS44 KMAF 040455
MTR6R6
METAR K6R6 040453Z AUTO 11004KT 13/10 A2985 RMK AO1 SLP094 T01280100
$





000
SAUS44 KMAF 040354
MTR6R6
METAR K6R6 040353Z AUTO 08003KT 13/09 A2986 RMK AO1 SLP097 T01280094
$





000
SAUS44 KMAF 040354
MTR6R6
METAR K6R6 040353Z AUTO 08003KT 13/09 A2986 RMK AO1 SLP097 T01280094
$





000
SAUS44 KMAF 040254
MTR6R6
METAR K6R6 040253Z AUTO 02005KT 13/09 A2984 RMK AO1 SLP092 T01330094
53025 $





000
SAUS44 KMAF 040154
MTR6R6
METAR K6R6 040153Z AUTO 02004KT 13/09 A2981 RMK AO1 SLP080 T01330089
$





000
SAUS44 KMAF 040154
MTR6R6
METAR K6R6 040153Z AUTO 02004KT 13/09 A2981 RMK AO1 SLP080 T01330089
$





000
SAUS44 KMAF 040054
MTR6R6
METAR K6R6 040053Z AUTO 10006KT 14/09 A2978 RMK AO1 SLP069 T01390094
$





000
SAUS44 KMAF 040054
MTR6R6
METAR K6R6 040053Z AUTO 10006KT 14/09 A2978 RMK AO1 SLP069 T01390094
$





000
SAUS44 KMAF 032354
MTR6R6
METAR K6R6 032353Z AUTO 13008KT 16/09 A2977 RMK AO1 SLP063 6////
T01560089 10178 20117 $





000
SAUS44 KMAF 032354
MTR6R6
METAR K6R6 032353Z AUTO 13008KT 16/09 A2977 RMK AO1 SLP063 6////
T01560089 10178 20117 $





000
SAUS44 KMAF 032254
MTR6R6
METAR K6R6 032253Z AUTO 10008KT 17/09 A2977 RMK AO1 SLP063 T01670089





000
SAUS44 KMAF 032254
MTR6R6
METAR K6R6 032253Z AUTO 10008KT 17/09 A2977 RMK AO1 SLP063 T01670089





000
SAUS44 KMAF 032154
MTR6R6
METAR K6R6 032153Z AUTO 10005KT 17/08 A2978 RMK AO1 SLP069 T01670083





000
SAUS44 KMAF 032154
MTR6R6
METAR K6R6 032153Z AUTO 10005KT 17/08 A2978 RMK AO1 SLP069 T01670083





000
SAUS44 KMAF 032054
MTR6R6
METAR K6R6 032053Z AUTO 13006KT 17/08 A2979 RMK AO1 SLP071 T01720078
56035





000
SAUS44 KMAF 031954
MTR6R6
METAR K6R6 031953Z AUTO 15007KT 110V170 16/08 A2983 RMK AO1 SLP083
T01610078





000
SAUS44 KMAF 031954
MTR6R6
METAR K6R6 031953Z AUTO 15007KT 110V170 16/08 A2983 RMK AO1 SLP083
T01610078





000
SAUS44 KMAF 031854
MTR6R6
METAR K6R6 031853Z AUTO VRB04KT 14/07 A2987 RMK AO1 SLP098 T01440072





000
SAUS44 KMAF 031854
MTR6R6
METAR K6R6 031853Z AUTO VRB04KT 14/07 A2987 RMK AO1 SLP098 T01440072





000
SAUS44 KMAF 031754
MTR6R6
METAR K6R6 031753Z AUTO 19005KT 12/07 A2990 RMK AO1 SLP111 T01220067
10122 20072 $





000
SAUS44 KMAF 031754
MTR6R6
METAR K6R6 031753Z AUTO 19005KT 12/07 A2990 RMK AO1 SLP111 T01220067
10122 20072 $





000
SAUS44 KMAF 031654
MTR6R6
METAR K6R6 031653Z AUTO 21005KT 09/06 A2993 RMK AO1 SLP125 T00940061





000
SAUS44 KMAF 031654
MTR6R6
METAR K6R6 031653Z AUTO 21005KT 09/06 A2993 RMK AO1 SLP125 T00940061





000
SAUS44 KMAF 031554
MTR6R6
METAR K6R6 031553Z AUTO 19007KT 08/06 A2994 RMK AO1 SLP128 T00830061





000
SAUS44 KMAF 031454
MTR6R6
METAR K6R6 031453Z AUTO 18007KT 07/06 A2994 RMK AO1 SLP130 T00720061
58006





000
SAUS44 KMAF 031454
MTR6R6
METAR K6R6 031453Z AUTO 18007KT 07/06 A2994 RMK AO1 SLP130 T00720061
58006





000
SAUS44 KMAF 031354
MTR6R6
METAR K6R6 031353Z AUTO 24006KT 07/06 A2996 RMK AO1 SLP136 T00720061





000
SAUS44 KMAF 031254
MTR6R6
METAR K6R6 031253Z AUTO 20005KT 08/06 A2995 RMK AO1 SLP132 T00780061





000
SAUS44 KMAF 031254
MTR6R6
METAR K6R6 031253Z AUTO 20005KT 08/06 A2995 RMK AO1 SLP132 T00780061





000
SAUS44 KMAF 031154
MTR6R6
METAR K6R6 031153Z AUTO 22004KT 08/06 A2996 RMK AO1 SLP135 T00780061
10083 20072 55012





000
SAUS44 KMAF 031154
MTR6R6
METAR K6R6 031153Z AUTO 22004KT 08/06 A2996 RMK AO1 SLP135 T00780061
10083 20072 55012





000
SAUS44 KMAF 031054
MTR6R6
METAR K6R6 031053Z AUTO 18003KT 08/07 A2996 RMK AO1 SLP134 T00780067





000
SAUS44 KMAF 031054
MTR6R6
METAR K6R6 031053Z AUTO 18003KT 08/07 A2996 RMK AO1 SLP134 T00780067





000
SAUS44 KMAF 030954
MTR6R6
METAR K6R6 030953Z AUTO 00000KT 08/07 A2998 RMK AO1 SLP143 T00780067





000
SAUS44 KMAF 030954
MTR6R6
METAR K6R6 030953Z AUTO 00000KT 08/07 A2998 RMK AO1 SLP143 T00780067





000
SAUS44 KMAF 030854
MTR6R6
METAR K6R6 030853Z AUTO 00000KT 07/07 A2999 RMK AO1 SLP147 T00720067
58020





000
SAUS44 KMAF 030754
MTR6R6
METAR K6R6 030753Z AUTO 00000KT 07/06 A3002 RMK AO1 SLP159 T00720061





000
SAUS44 KMAF 030754
MTR6R6
METAR K6R6 030753Z AUTO 00000KT 07/06 A3002 RMK AO1 SLP159 T00720061





000
SAUS44 KMAF 030654
MTR6R6
METAR K6R6 030653Z AUTO 00000KT 08/06 A3004 RMK AO1 SLP164 T00780061





000
SAUS44 KMAF 030654
MTR6R6
METAR K6R6 030653Z AUTO 00000KT 08/06 A3004 RMK AO1 SLP164 T00780061





000
SAUS44 KMAF 030555
MTR6R6
METAR K6R6 030553Z AUTO 00000KT 08/05 A3006 RMK AO1 SLP171 T00830050
10089 20083 401000033 58007





000
SAUS44 KMAF 030555
MTR6R6
METAR K6R6 030553Z AUTO 00000KT 08/05 A3006 RMK AO1 SLP171 T00830050
10089 20083 401000033 58007





000
SAUS44 KMAF 030454
MTR6R6
METAR K6R6 030453Z AUTO 00000KT 08/04 A3006 RMK AO1 SLP173 T00830044





000
SAUS44 KMAF 030454
MTR6R6
METAR K6R6 030453Z AUTO 00000KT 08/04 A3006 RMK AO1 SLP173 T00830044





000
SAUS44 KMAF 030354
MTR6R6
METAR K6R6 030353Z AUTO 00000KT 09/04 A3008 RMK AO1 SLP180 T00890044





000
SAUS44 KMAF 030254
MTR6R6
METAR K6R6 030253Z AUTO 00000KT 08/04 A3008 RMK AO1 SLP181 T00830044
53005





000
SAUS44 KMAF 030254
MTR6R6
METAR K6R6 030253Z AUTO 00000KT 08/04 A3008 RMK AO1 SLP181 T00830044
53005





000
SAUS44 KMAF 030154
MTR6R6
METAR K6R6 030153Z AUTO 12003KT 08/04 A3008 RMK AO1 SLP180 T00830044





000
SAUS44 KMAF 030154
MTR6R6
METAR K6R6 030153Z AUTO 12003KT 08/04 A3008 RMK AO1 SLP180 T00830044





000
SAUS44 KMAF 030054
MTR6R6
METAR K6R6 030053Z AUTO 11005KT 08/04 A3007 RMK AO1 SLP177 T00830044





000
SAUS44 KMAF 030054
MTR6R6
METAR K6R6 030053Z AUTO 11005KT 08/04 A3007 RMK AO1 SLP177 T00830044





000
SAUS44 KMAF 022354
MTR6R6
METAR K6R6 022353Z AUTO 10007KT 08/04 A3007 RMK AO1 SLP176 T00830044
10100 20061 56016





000
SAUS44 KMAF 022354
MTR6R6
METAR K6R6 022353Z AUTO 10007KT 08/04 A3007 RMK AO1 SLP176 T00830044
10100 20061 56016





000
SAUS44 KMAF 022254
MTR6R6
METAR K6R6 022253Z AUTO 11007KT 09/04 A3008 RMK AO1 SLP180 T00890044





000
SAUS44 KMAF 022254
MTR6R6
METAR K6R6 022253Z AUTO 11007KT 09/04 A3008 RMK AO1 SLP180 T00890044





000
SAUS44 KMAF 022154
MTR6R6
METAR K6R6 022153Z AUTO 11007KT 09/04 A3010 RMK AO1 SLP186 T00940044





000
SAUS44 KMAF 022154
MTR6R6
METAR K6R6 022153Z AUTO 11007KT 09/04 A3010 RMK AO1 SLP186 T00940044





000
SAUS44 KMAF 022054
MTR6R6
METAR K6R6 022053Z AUTO 10007KT 09/04 A3012 RMK AO1 SLP192 T00940044
57046





000
SAUS44 KMAF 021954
MTR6R6
METAR K6R6 021953Z AUTO 08006KT 08/04 A3016 RMK AO1 SLP207 T00830039





000
SAUS44 KMAF 021854
MTR6R6
METAR K6R6 021853Z AUTO 03006KT 07/03 A3022 RMK AO1 SLP228 T00720033





000
SAUS44 KMAF 021854
MTR6R6
METAR K6R6 021853Z AUTO 03006KT 07/03 A3022 RMK AO1 SLP228 T00720033





000
SAUS44 KMAF 021754
MTR6R6
METAR K6R6 021753Z AUTO 05006KT 06/03 A3026 RMK AO1 SLP243 T00610033
10061 20033 58010





000
SAUS44 KMAF 021754
MTR6R6
METAR K6R6 021753Z AUTO 05006KT 06/03 A3026 RMK AO1 SLP243 T00610033
10061 20033 58010





000
SAUS44 KMAF 021654
MTR6R6
METAR K6R6 021653Z AUTO 03007KT 06/03 A3029 RMK AO1 SLP253 T00560033





000
SAUS44 KMAF 021654
MTR6R6
METAR K6R6 021653Z AUTO 03007KT 06/03 A3029 RMK AO1 SLP253 T00560033





000
SAUS44 KMAF 021554
MTR6R6
METAR K6R6 021553Z AUTO 03008KT 04/03 A3030 RMK AO1 SLP256 T00440028





000
SAUS44 KMAF 021454
MTR6R6
METAR K6R6 021453Z AUTO 02009KT 04/03 A3029 RMK AO1 SLP254 T00390028
51010





000
SAUS44 KMAF 021354
MTR6R6
METAR K6R6 021353Z AUTO 02008KT 03/02 A3029 RMK AO1 SLP251 T00330022
$





000
SAUS44 KMAF 021254
MTR6R6
METAR K6R6 021253Z AUTO 02008KT 04/03 A3027 RMK AO1 SLP246 T00390028
$





000
SAUS44 KMAF 021154
MTR6R6
METAR K6R6 021153Z AUTO 02010KT 04/03 A3026 RMK AO1 SLP242 T00390028
10061 20039 55000 $





000
SAUS44 KMAF 021054
MTR6R6
METAR K6R6 021053Z AUTO 03007KT 04/03 A3025 RMK AO1 SLP238 T00390033
$





000
SAUS44 KMAF 021054
MTR6R6
METAR K6R6 021053Z AUTO 03007KT 04/03 A3025 RMK AO1 SLP238 T00390033
$





000
SAUS44 KMAF 020954
MTR6R6
METAR K6R6 020953Z AUTO 04009KT 04/03 A3025 RMK AO1 SLP236 T00440033
$





000
SAUS44 KMAF 020954
MTR6R6
METAR K6R6 020953Z AUTO 04009KT 04/03 A3025 RMK AO1 SLP236 T00440033
$





000
SAUS44 KMAF 020854
MTR6R6
METAR K6R6 020853Z AUTO 03010KT 05/04 A3026 RMK AO1 SLP240 T00500039
58003 $





000
SAUS44 KMAF 020854
MTR6R6
METAR K6R6 020853Z AUTO 03010KT 05/04 A3026 RMK AO1 SLP240 T00500039
58003 $





000
SAUS44 KMAF 020754
MTR6R6
METAR K6R6 020753Z AUTO 03010KT 05/04 A3026 RMK AO1 SLP242 T00500044
$





000
SAUS44 KMAF 020654
MTR6R6
METAR K6R6 020653Z AUTO 04008KT 06/05 A3027 RMK AO1 SLP245 T00560050
$





000
SAUS44 KMAF 020654
MTR6R6
METAR K6R6 020653Z AUTO 04008KT 06/05 A3027 RMK AO1 SLP245 T00560050
$





000
SAUS44 KMAF 020554
MTR6R6
METAR K6R6 020553Z AUTO 04008KT 06/06 A3027 RMK AO1 SLP245 T00610056
10100 20061 401000044 51014 $





000
SAUS44 KMAF 020454
MTR6R6
METAR K6R6 020453Z AUTO 04008KT 07/06 A3027 RMK AO1 SLP245 T00670056
$





000
SAUS44 KMAF 020454
MTR6R6
METAR K6R6 020453Z AUTO 04008KT 07/06 A3027 RMK AO1 SLP245 T00670056
$





000
SAUS44 KMAF 020354
MTR6R6
METAR K6R6 020353Z AUTO 06007KT 08/07 A3025 RMK AO1 SLP237 T00830072
$





000
SAUS44 KMAF 020354
MTR6R6
METAR K6R6 020353Z AUTO 06007KT 08/07 A3025 RMK AO1 SLP237 T00830072
$





000
SAUS44 KMAF 020254
MTR6R6
METAR K6R6 020253Z AUTO 07007KT 08/07 A3023 RMK AO1 SLP229 T00830072
53022 $





    US Dept of Commerce
    National Oceanic and Atmospheric Administration
    National Weather Service
    1325 East West Highway
    Silver Spring, MD 20910
    Page Author: NWS Internet Services Team
Disclaimer
Information Quality
Credits
Glossary
Privacy Policy
Freedom of Information Act (FOIA)
About Us
Career Opportunities